sensor_id;sensor_type;location;lat;lon;timestamp;temperature;humidity
54409;DHT22;40315;48.620;9.828;2022-11-23T00:00:04;2.10;99.90
54409;DHT22;40315;48.620;9.828;2022-11-23T00:02:32;2.10;99.90
54409;DHT22;40315;48.620;9.828;2022-11-23T00:05:02;2.20;99.90
54409;DHT22;40315;48.620;9.828;2022-11-23T00:07:29;2.10;99.90
54409;DHT22;40315;48.620;9.828;2022-11-23T00:09:56;2.00;99.90
54409;DHT22;40315;48.620;9.828;2022-11-23T00:12:25;2.00;99.90
54409;DHT22;40315;48.620;9.828;2022-11-23T00:14:54;3.50;99.90
54409;DHT22;40315;48.620;9.828;2022-11-23T00:17:21;1.90;99.90
54409;DHT22;40315;48.620;9.828;2022-11-23T00:19:50;1.90;99.90
54409;DHT22;40315;48.620;9.828;2022-11-23T00:22:19;1.90;99.90
54409;DHT22;40315;48.620;9.828;2022-11-23T00:24:49;1.90;99.90
54409;DHT22;40315;48.620;9.828;2022-11-23T00:27:16;1.90;99.90
54409;DHT22;40315;48.620;9.828;2022-11-23T00:29:46;1.90;99.90
54409;DHT22;40315;48.620;9.828;2022-11-23T00:32:15;1.80;99.90
54409;DHT22;40315;48.620;9.828;2022-11-23T00:34:42;1.90;99.90
54409;DHT22;40315;48.620;9.828;2022-11-23T00:37:09;2.20;99.90
54409;DHT22;40315;48.620;9.828;2022-11-23T00:39:36;1.90;99.90
54409;DHT22;40315;48.620;9.828;2022-11-23T00:42:03;3.10;99.90
54409;DHT22;40315;48.620;9.828;2022-11-23T00:44:30;1.90;99.90
54409;DHT22;40315;48.620;9.828;2022-11-23T00:46:57;5.10;99.90
54409;DHT22;40315;48.620;9.828;2022-11-23T00:49:27;1.90;99.90
54409;DHT22;40315;48.620;9.828;2022-11-23T00:51:54;1.80;99.90
54409;DHT22;40315;48.620;9.828;2022-11-23T00:54:24;1.80;99.90
54409;DHT22;40315;48.620;9.828;2022-11-23T00:56:51;1.80;99.90
54409;DHT22;40315;48.620;9.828;2022-11-23T00:59:19;1.80;99.90
54409;DHT22;40315;48.620;9.828;2022-11-23T01:01:48;1.90;99.90
54409;DHT22;40315;48.620;9.828;2022-11-23T01:04:15;2.00;99.90
54409;DHT22;40315;48.620;9.828;2022-11-23T01:06:43;2.70;99.90
54409;DHT22;40315;48.620;9.828;2022-11-23T01:09:13;4.70;99.90
54409;DHT22;40315;48.620;9.828;2022-11-23T01:11:43;2.40;99.90
54409;DHT22;40315;48.620;9.828;2022-11-23T01:14:11;2.00;99.90
54409;DHT22;40315;48.620;9.828;2022-11-23T01:16:39;2.90;99.90
54409;DHT22;40315;48.620;9.828;2022-11-23T01:19:11;2.00;99.90
54409;DHT22;40315;48.620;9.828;2022-11-23T01:21:43;1.90;99.90
54409;DHT22;40315;48.620;9.828;2022-11-23T01:24:12;1.90;99.90
54409;DHT22;40315;48.620;9.828;2022-11-23T01:26:40;2.10;99.90
54409;DHT22;40315;48.620;9.828;2022-11-23T01:29:11;1.90;99.90
54409;DHT22;40315;48.620;9.828;2022-11-23T01:31:39;1.90;99.90
54409;DHT22;40315;48.620;9.828;2022-11-23T01:34:06;1.80;99.90
54409;DHT22;40315;48.620;9.828;2022-11-23T01:39:04;1.90;99.90
54409;DHT22;40315;48.620;9.828;2022-11-23T01:41:33;2.20;99.90
54409;DHT22;40315;48.620;9.828;2022-11-23T02:03:41;2.00;99.90
54409;DHT22;40315;48.620;9.828;2022-11-23T02:06:16;2.00;99.90
54409;DHT22;40315;48.620;9.828;2022-11-23T02:08:45;2.00;99.90
54409;DHT22;40315;48.620;9.828;2022-11-23T02:11:14;1.90;99.90
54409;DHT22;40315;48.620;9.828;2022-11-23T02:13:43;1.90;99.90
54409;DHT22;40315;48.620;9.828;2022-11-23T02:16:10;2.00;99.90
54409;DHT22;40315;48.620;9.828;2022-11-23T02:18:47;2.00;99.90
54409;DHT22;40315;48.620;9.828;2022-11-23T02:21:19;2.00;99.90
54409;DHT22;40315;48.620;9.828;2022-11-23T02:23:54;2.10;99.90
54409;DHT22;40315;48.620;9.828;2022-11-23T02:26:26;0.70;99.90
54409;DHT22;40315;48.620;9.828;2022-11-23T02:28:58;1.90;99.90
54409;DHT22;40315;48.620;9.828;2022-11-23T02:31:28;1.90;99.90
54409;DHT22;40315;48.620;9.828;2022-11-23T02:33:58;2.00;99.90
54409;DHT22;40315;48.620;9.828;2022-11-23T02:36:34;2.00;99.90
54409;DHT22;40315;48.620;9.828;2022-11-23T02:39:08;2.00;99.90
54409;DHT22;40315;48.620;9.828;2022-11-23T02:41:42;2.00;99.90
54409;DHT22;40315;48.620;9.828;2022-11-23T02:44:18;2.00;99.90
54409;DHT22;40315;48.620;9.828;2022-11-23T02:46:49;1.90;99.90
54409;DHT22;40315;48.620;9.828;2022-11-23T02:49:18;1.90;99.90
54409;DHT22;40315;48.620;9.828;2022-11-23T02:51:50;3.10;99.90
54409;DHT22;40315;48.620;9.828;2022-11-23T02:54:19;2.00;99.90
54409;DHT22;40315;48.620;9.828;2022-11-23T02:56:47;2.10;99.90
54409;DHT22;40315;48.620;9.828;2022-11-23T02:59:18;2.10;99.90
54409;DHT22;40315;48.620;9.828;2022-11-23T03:01:45;2.10;99.90
54409;DHT22;40315;48.620;9.828;2022-11-23T03:04:14;2.20;99.90
54409;DHT22;40315;48.620;9.828;2022-11-23T03:06:41;2.20;99.90
54409;DHT22;40315;48.620;9.828;2022-11-23T03:09:08;2.20;99.90
54409;DHT22;40315;48.620;9.828;2022-11-23T03:11:38;2.10;99.90
54409;DHT22;40315;48.620;9.828;2022-11-23T03:14:07;2.20;99.90
54409;DHT22;40315;48.620;9.828;2022-11-23T03:16:42;2.20;99.90
54409;DHT22;40315;48.620;9.828;2022-11-23T03:19:10;2.20;99.90
54409;DHT22;40315;48.620;9.828;2022-11-23T03:21:39;2.30;99.90
54409;DHT22;40315;48.620;9.828;2022-11-23T03:24:06;2.30;99.90
54409;DHT22;40315;48.620;9.828;2022-11-23T03:26:35;2.30;99.90
54409;DHT22;40315;48.620;9.828;2022-11-23T03:29:18;2.30;99.90
54409;DHT22;40315;48.620;9.828;2022-11-23T03:31:46;2.30;99.90
54409;DHT22;40315;48.620;9.828;2022-11-23T03:34:14;2.30;99.90
54409;DHT22;40315;48.620;9.828;2022-11-23T03:36:43;2.40;99.90
54409;DHT22;40315;48.620;9.828;2022-11-23T03:39:10;2.40;99.90
54409;DHT22;40315;48.620;9.828;2022-11-23T03:41:57;2.40;99.90
54409;DHT22;40315;48.620;9.828;2022-11-23T03:44:31;2.30;99.90
54409;DHT22;40315;48.620;9.828;2022-11-23T03:46:58;2.40;99.90
54409;DHT22;40315;48.620;9.828;2022-11-23T03:49:28;2.50;99.90
54409;DHT22;40315;48.620;9.828;2022-11-23T03:51:55;2.50;99.90
54409;DHT22;40315;48.620;9.828;2022-11-23T03:54:26;2.50;99.90
54409;DHT22;40315;48.620;9.828;2022-11-23T03:56:55;2.60;99.90
54409;DHT22;40315;48.620;9.828;2022-11-23T03:59:22;2.60;99.90
54409;DHT22;40315;48.620;9.828;2022-11-23T04:01:53;2.60;99.90
54409;DHT22;40315;48.620;9.828;2022-11-23T04:04:24;2.60;99.90
54409;DHT22;40315;48.620;9.828;2022-11-23T04:07:18;2.60;99.90
54409;DHT22;40315;48.620;9.828;2022-11-23T04:09:49;2.60;99.90
54409;DHT22;40315;48.620;9.828;2022-11-23T04:12:24;2.60;99.90
54409;DHT22;40315;48.620;9.828;2022-11-23T04:14:51;2.60;99.90
54409;DHT22;40315;48.620;9.828;2022-11-23T04:17:20;2.60;99.90
54409;DHT22;40315;48.620;9.828;2022-11-23T04:19:47;2.70;99.90
54409;DHT22;40315;48.620;9.828;2022-11-23T04:22:15;2.60;99.90
54409;DHT22;40315;48.620;9.828;2022-11-23T04:24:42;2.70;99.90
54409;DHT22;40315;48.620;9.828;2022-11-23T04:27:09;2.70;99.90
54409;DHT22;40315;48.620;9.828;2022-11-23T04:29:37;2.60;99.90
54409;DHT22;40315;48.620;9.828;2022-11-23T04:32:04;2.70;99.90
54409;DHT22;40315;48.620;9.828;2022-11-23T04:34:34;2.60;99.90
54409;DHT22;40315;48.620;9.828;2022-11-23T04:37:02;2.60;99.90
54409;DHT22;40315;48.620;9.828;2022-11-23T04:39:37;2.60;99.90
54409;DHT22;40315;48.620;9.828;2022-11-23T04:42:17;2.60;99.90
54409;DHT22;40315;48.620;9.828;2022-11-23T04:44:50;2.70;99.90
54409;DHT22;40315;48.620;9.828;2022-11-23T04:47:18;2.70;99.90
54409;DHT22;40315;48.620;9.828;2022-11-23T04:49:48;2.70;99.90
54409;DHT22;40315;48.620;9.828;2022-11-23T04:52:17;2.70;99.90
54409;DHT22;40315;48.620;9.828;2022-11-23T04:54:47;2.80;99.90
54409;DHT22;40315;48.620;9.828;2022-11-23T04:57:14;2.80;99.90
54409;DHT22;40315;48.620;9.828;2022-11-23T04:59:43;2.80;99.90
54409;DHT22;40315;48.620;9.828;2022-11-23T05:02:10;2.80;99.90
54409;DHT22;40315;48.620;9.828;2022-11-23T05:05:08;2.80;99.90
54409;DHT22;40315;48.620;9.828;2022-11-23T05:07:35;2.90;99.90
54409;DHT22;40315;48.620;9.828;2022-11-23T05:10:03;2.90;99.90
54409;DHT22;40315;48.620;9.828;2022-11-23T05:12:32;2.90;99.90
54409;DHT22;40315;48.620;9.828;2022-11-23T05:14:59;2.90;99.90
54409;DHT22;40315;48.620;9.828;2022-11-23T05:17:33;2.80;99.90
54409;DHT22;40315;48.620;9.828;2022-11-23T05:20:00;2.90;99.90
54409;DHT22;40315;48.620;9.828;2022-11-23T05:22:32;2.80;99.90
54409;DHT22;40315;48.620;9.828;2022-11-23T05:24:59;2.70;99.90
54409;DHT22;40315;48.620;9.828;2022-11-23T05:27:28;2.70;99.90
54409;DHT22;40315;48.620;9.828;2022-11-23T05:29:55;2.80;99.90
54409;DHT22;40315;48.620;9.828;2022-11-23T05:32:24;2.80;99.90
54409;DHT22;40315;48.620;9.828;2022-11-23T05:34:52;2.80;99.90
54409;DHT22;40315;48.620;9.828;2022-11-23T05:37:19;2.80;99.90
54409;DHT22;40315;48.620;9.828;2022-11-23T05:39:56;2.70;99.90
54409;DHT22;40315;48.620;9.828;2022-11-23T05:42:24;2.80;99.90
54409;DHT22;40315;48.620;9.828;2022-11-23T05:44:55;2.80;99.90
54409;DHT22;40315;48.620;9.828;2022-11-23T05:47:30;2.80;99.90
54409;DHT22;40315;48.620;9.828;2022-11-23T05:50:04;2.90;99.90
54409;DHT22;40315;48.620;9.828;2022-11-23T05:52:32;2.80;99.90
54409;DHT22;40315;48.620;9.828;2022-11-23T05:55:00;2.90;99.90
54409;DHT22;40315;48.620;9.828;2022-11-23T05:57:28;2.90;99.90
54409;DHT22;40315;48.620;9.828;2022-11-23T05:59:55;2.80;99.90
54409;DHT22;40315;48.620;9.828;2022-11-23T06:02:38;2.80;99.90
54409;DHT22;40315;48.620;9.828;2022-11-23T06:05:07;2.90;99.90
54409;DHT22;40315;48.620;9.828;2022-11-23T06:07:43;2.90;99.90
54409;DHT22;40315;48.620;9.828;2022-11-23T06:10:13;3.00;99.90
54409;DHT22;40315;48.620;9.828;2022-11-23T06:12:45;3.00;99.90
54409;DHT22;40315;48.620;9.828;2022-11-23T06:15:16;2.90;99.90
54409;DHT22;40315;48.620;9.828;2022-11-23T06:17:45;2.90;99.90
54409;DHT22;40315;48.620;9.828;2022-11-23T06:20:17;2.90;99.90
54409;DHT22;40315;48.620;9.828;2022-11-23T06:22:52;2.90;99.90
54409;DHT22;40315;48.620;9.828;2022-11-23T06:25:22;2.90;99.90
54409;DHT22;40315;48.620;9.828;2022-11-23T06:27:56;2.90;99.90
54409;DHT22;40315;48.620;9.828;2022-11-23T06:30:29;3.00;99.90
54409;DHT22;40315;48.620;9.828;2022-11-23T06:33:02;2.90;99.90
54409;DHT22;40315;48.620;9.828;2022-11-23T06:35:34;2.90;99.90
54409;DHT22;40315;48.620;9.828;2022-11-23T06:38:01;3.50;99.90
54409;DHT22;40315;48.620;9.828;2022-11-23T06:40:29;3.00;99.90
54409;DHT22;40315;48.620;9.828;2022-11-23T06:42:57;3.00;99.90
54409;DHT22;40315;48.620;9.828;2022-11-23T06:45:33;3.00;99.90
54409;DHT22;40315;48.620;9.828;2022-11-23T06:48:05;2.90;99.90
54409;DHT22;40315;48.620;9.828;2022-11-23T06:50:36;2.90;99.90
54409;DHT22;40315;48.620;9.828;2022-11-23T06:53:04;3.00;99.90
54409;DHT22;40315;48.620;9.828;2022-11-23T06:55:40;3.00;99.90
54409;DHT22;40315;48.620;9.828;2022-11-23T06:58:09;3.00;99.90
54409;DHT22;40315;48.620;9.828;2022-11-23T07:00:36;3.00;99.90
54409;DHT22;40315;48.620;9.828;2022-11-23T07:03:03;3.00;99.90
54409;DHT22;40315;48.620;9.828;2022-11-23T07:05:38;3.00;99.90
54409;DHT22;40315;48.620;9.828;2022-11-23T07:08:07;2.90;99.90
54409;DHT22;40315;48.620;9.828;2022-11-23T07:10:36;3.00;99.90
54409;DHT22;40315;48.620;9.828;2022-11-23T07:13:10;2.90;99.90
54409;DHT22;40315;48.620;9.828;2022-11-23T07:15:41;3.00;99.90
54409;DHT22;40315;48.620;9.828;2022-11-23T07:18:10;3.10;99.90
54409;DHT22;40315;48.620;9.828;2022-11-23T07:20:42;3.10;99.90
54409;DHT22;40315;48.620;9.828;2022-11-23T07:23:10;3.20;99.90
54409;DHT22;40315;48.620;9.828;2022-11-23T07:25:39;3.20;99.90
54409;DHT22;40315;48.620;9.828;2022-11-23T07:28:06;3.30;99.90
54409;DHT22;40315;48.620;9.828;2022-11-23T07:30:35;3.30;99.90
54409;DHT22;40315;48.620;9.828;2022-11-23T07:33:05;3.40;99.90
54409;DHT22;40315;48.620;9.828;2022-11-23T07:35:34;3.40;99.90
54409;DHT22;40315;48.620;9.828;2022-11-23T07:38:02;3.40;99.90
54409;DHT22;40315;48.620;9.828;2022-11-23T07:40:29;3.40;99.90
54409;DHT22;40315;48.620;9.828;2022-11-23T07:42:58;3.40;99.90
54409;DHT22;40315;48.620;9.828;2022-11-23T07:45:26;3.50;99.90
54409;DHT22;40315;48.620;9.828;2022-11-23T07:48:00;4.20;99.90
54409;DHT22;40315;48.620;9.828;2022-11-23T07:50:28;3.50;99.90
54409;DHT22;40315;48.620;9.828;2022-11-23T07:52:55;3.60;99.90
54409;DHT22;40315;48.620;9.828;2022-11-23T07:55:23;3.70;99.90
54409;DHT22;40315;48.620;9.828;2022-11-23T07:57:53;3.70;99.90
54409;DHT22;40315;48.620;9.828;2022-11-23T08:00:21;3.70;99.90
54409;DHT22;40315;48.620;9.828;2022-11-23T08:02:50;3.60;99.90
54409;DHT22;40315;48.620;9.828;2022-11-23T08:05:19;3.60;99.90
54409;DHT22;40315;48.620;9.828;2022-11-23T08:07:48;3.60;99.90
54409;DHT22;40315;48.620;9.828;2022-11-23T08:10:18;3.60;99.90
54409;DHT22;40315;48.620;9.828;2022-11-23T08:12:45;3.60;99.90
54409;DHT22;40315;48.620;9.828;2022-11-23T08:15:12;3.70;99.90
54409;DHT22;40315;48.620;9.828;2022-11-23T08:17:39;3.70;99.90
54409;DHT22;40315;48.620;9.828;2022-11-23T08:20:07;3.70;99.90
54409;DHT22;40315;48.620;9.828;2022-11-23T08:22:35;3.60;99.90
54409;DHT22;40315;48.620;9.828;2022-11-23T08:25:02;3.60;99.90
54409;DHT22;40315;48.620;9.828;2022-11-23T08:27:29;3.60;99.90
54409;DHT22;40315;48.620;9.828;2022-11-23T08:29:56;3.60;99.90
54409;DHT22;40315;48.620;9.828;2022-11-23T08:32:23;3.60;99.90
54409;DHT22;40315;48.620;9.828;2022-11-23T08:34:50;3.60;99.90
54409;DHT22;40315;48.620;9.828;2022-11-23T08:37:20;3.60;99.90
54409;DHT22;40315;48.620;9.828;2022-11-23T08:39:48;3.60;99.90
54409;DHT22;40315;48.620;9.828;2022-11-23T08:44:45;3.70;99.90
54409;DHT22;40315;48.620;9.828;2022-11-23T08:47:12;3.70;99.90
54409;DHT22;40315;48.620;9.828;2022-11-23T08:49:39;3.70;99.90
54409;DHT22;40315;48.620;9.828;2022-11-23T08:52:08;3.70;99.90
54409;DHT22;40315;48.620;9.828;2022-11-23T08:54:35;3.70;99.90
54409;DHT22;40315;48.620;9.828;2022-11-23T08:57:06;3.70;99.90
54409;DHT22;40315;48.620;9.828;2022-11-23T08:59:33;3.90;99.90
54409;DHT22;40315;48.620;9.828;2022-11-23T09:02:00;3.90;99.90
54409;DHT22;40315;48.620;9.828;2022-11-23T09:04:29;3.90;99.90
54409;DHT22;40315;48.620;9.828;2022-11-23T09:06:57;3.90;99.90
54409;DHT22;40315;48.620;9.828;2022-11-23T09:09:24;3.90;99.90
54409;DHT22;40315;48.620;9.828;2022-11-23T09:11:53;3.90;99.90
54409;DHT22;40315;48.620;9.828;2022-11-23T09:14:24;3.90;99.90
54409;DHT22;40315;48.620;9.828;2022-11-23T09:16:52;3.90;99.90
54409;DHT22;40315;48.620;9.828;2022-11-23T09:19:19;3.90;99.90
54409;DHT22;40315;48.620;9.828;2022-11-23T09:21:46;3.80;99.90
54409;DHT22;40315;48.620;9.828;2022-11-23T09:24:13;3.90;99.90
54409;DHT22;40315;48.620;9.828;2022-11-23T09:26:40;3.90;99.90
54409;DHT22;40315;48.620;9.828;2022-11-23T09:29:07;3.80;99.90
54409;DHT22;40315;48.620;9.828;2022-11-23T09:31:36;3.80;99.90
54409;DHT22;40315;48.620;9.828;2022-11-23T09:34:04;3.90;99.90
54409;DHT22;40315;48.620;9.828;2022-11-23T09:36:31;3.90;99.90
54409;DHT22;40315;48.620;9.828;2022-11-23T09:39:00;3.80;99.90
54409;DHT22;40315;48.620;9.828;2022-11-23T09:41:50;3.80;99.90
54409;DHT22;40315;48.620;9.828;2022-11-23T09:44:26;3.70;99.90
54409;DHT22;40315;48.620;9.828;2022-11-23T09:47:05;3.80;99.90
54409;DHT22;40315;48.620;9.828;2022-11-23T09:49:42;3.80;99.90
54409;DHT22;40315;48.620;9.828;2022-11-23T09:52:15;3.80;99.90
54409;DHT22;40315;48.620;9.828;2022-11-23T09:54:44;3.90;99.90
54409;DHT22;40315;48.620;9.828;2022-11-23T09:57:15;3.70;99.90
54409;DHT22;40315;48.620;9.828;2022-11-23T09:59:49;3.80;99.90
54409;DHT22;40315;48.620;9.828;2022-11-23T10:02:22;3.70;99.90
54409;DHT22;40315;48.620;9.828;2022-11-23T10:04:52;3.70;99.90
54409;DHT22;40315;48.620;9.828;2022-11-23T10:07:30;3.80;99.90
54409;DHT22;40315;48.620;9.828;2022-11-23T10:10:09;3.80;99.90
54409;DHT22;40315;48.620;9.828;2022-11-23T10:12:48;3.80;99.90
54409;DHT22;40315;48.620;9.828;2022-11-23T10:15:23;3.70;99.90
54409;DHT22;40315;48.620;9.828;2022-11-23T10:20:55;3.80;99.90
54409;DHT22;40315;48.620;9.828;2022-11-23T10:23:40;3.80;99.90
54409;DHT22;40315;48.620;9.828;2022-11-23T10:26:15;4.00;99.90
54409;DHT22;40315;48.620;9.828;2022-11-23T10:28:45;4.00;99.90
54409;DHT22;40315;48.620;9.828;2022-11-23T10:31:14;4.00;99.90
54409;DHT22;40315;48.620;9.828;2022-11-23T10:33:51;4.00;99.90
54409;DHT22;40315;48.620;9.828;2022-11-23T10:36:18;4.00;99.90
54409;DHT22;40315;48.620;9.828;2022-11-23T10:38:47;4.20;99.90
54409;DHT22;40315;48.620;9.828;2022-11-23T10:41:15;4.20;99.90
54409;DHT22;40315;48.620;9.828;2022-11-23T10:43:48;4.30;99.90
54409;DHT22;40315;48.620;9.828;2022-11-23T10:46:28;4.30;99.90
54409;DHT22;40315;48.620;9.828;2022-11-23T10:49:12;4.30;99.90
54409;DHT22;40315;48.620;9.828;2022-11-23T10:51:55;4.30;99.90
54409;DHT22;40315;48.620;9.828;2022-11-23T10:54:26;4.30;99.90
54409;DHT22;40315;48.620;9.828;2022-11-23T10:56:54;4.30;99.90
54409;DHT22;40315;48.620;9.828;2022-11-23T10:59:27;4.30;99.90
54409;DHT22;40315;48.620;9.828;2022-11-23T11:02:16;4.50;99.90
54409;DHT22;40315;48.620;9.828;2022-11-23T11:04:46;4.30;99.90
54409;DHT22;40315;48.620;9.828;2022-11-23T11:07:22;4.40;99.90
54409;DHT22;40315;48.620;9.828;2022-11-23T11:09:51;4.40;99.90
54409;DHT22;40315;48.620;9.828;2022-11-23T11:12:18;4.50;99.90
54409;DHT22;40315;48.620;9.828;2022-11-23T11:15:14;4.60;99.90
54409;DHT22;40315;48.620;9.828;2022-11-23T11:17:53;4.80;99.90
54409;DHT22;40315;48.620;9.828;2022-11-23T11:20:29;4.90;99.90
54409;DHT22;40315;48.620;9.828;2022-11-23T11:22:59;5.00;99.90
54409;DHT22;40315;48.620;9.828;2022-11-23T11:25:29;5.20;99.90
54409;DHT22;40315;48.620;9.828;2022-11-23T11:27:57;5.40;99.90
54409;DHT22;40315;48.620;9.828;2022-11-23T11:30:28;5.70;99.90
54409;DHT22;40315;48.620;9.828;2022-11-23T11:33:03;6.00;99.90
54409;DHT22;40315;48.620;9.828;2022-11-23T11:35:36;6.30;99.90
54409;DHT22;40315;48.620;9.828;2022-11-23T11:38:11;6.50;99.90
54409;DHT22;40315;48.620;9.828;2022-11-23T11:40:44;6.50;99.90
54409;DHT22;40315;48.620;9.828;2022-11-23T11:43:16;6.90;99.90
54409;DHT22;40315;48.620;9.828;2022-11-23T11:45:47;6.90;99.90
54409;DHT22;40315;48.620;9.828;2022-11-23T11:48:18;6.90;99.90
54409;DHT22;40315;48.620;9.828;2022-11-23T11:50:50;7.10;99.90
54409;DHT22;40315;48.620;9.828;2022-11-23T11:53:23;7.30;99.90
54409;DHT22;40315;48.620;9.828;2022-11-23T11:55:57;7.30;99.90
54409;DHT22;40315;48.620;9.828;2022-11-23T11:58:26;7.40;99.90
54409;DHT22;40315;48.620;9.828;2022-11-23T12:00:59;7.60;99.90
54409;DHT22;40315;48.620;9.828;2022-11-23T12:03:39;7.90;99.90
54409;DHT22;40315;48.620;9.828;2022-11-23T12:06:12;8.30;99.90
54409;DHT22;40315;48.620;9.828;2022-11-23T12:08:49;7.50;99.90
54409;DHT22;40315;48.620;9.828;2022-11-23T12:11:17;8.80;99.90
54409;DHT22;40315;48.620;9.828;2022-11-23T12:13:45;8.70;99.90
54409;DHT22;40315;48.620;9.828;2022-11-23T12:16:22;9.80;99.90
54409;DHT22;40315;48.620;9.828;2022-11-23T12:19:08;9.00;99.90
54409;DHT22;40315;48.620;9.828;2022-11-23T12:21:51;8.90;99.90
54409;DHT22;40315;48.620;9.828;2022-11-23T12:24:27;9.00;99.90
54409;DHT22;40315;48.620;9.828;2022-11-23T12:27:08;9.20;99.90
54409;DHT22;40315;48.620;9.828;2022-11-23T12:30:03;9.00;99.90
54409;DHT22;40315;48.620;9.828;2022-11-23T12:32:45;9.00;99.90
54409;DHT22;40315;48.620;9.828;2022-11-23T12:38:36;9.10;99.90
54409;DHT22;40315;48.620;9.828;2022-11-23T12:41:21;9.20;99.90
54409;DHT22;40315;48.620;9.828;2022-11-23T12:43:58;9.30;99.90
54409;DHT22;40315;48.620;9.828;2022-11-23T12:46:34;9.30;99.90
54409;DHT22;40315;48.620;9.828;2022-11-23T12:49:17;9.20;99.90
54409;DHT22;40315;48.620;9.828;2022-11-23T12:51:56;9.10;99.90
54409;DHT22;40315;48.620;9.828;2022-11-23T12:54:43;9.30;99.90
54409;DHT22;40315;48.620;9.828;2022-11-23T12:57:19;9.40;99.90
54409;DHT22;40315;48.620;9.828;2022-11-23T12:59:51;9.90;99.90
54409;DHT22;40315;48.620;9.828;2022-11-23T13:05:40;9.90;99.90
54409;DHT22;40315;48.620;9.828;2022-11-23T13:08:38;9.90;99.90
54409;DHT22;40315;48.620;9.828;2022-11-23T13:11:25;9.90;99.90
54409;DHT22;40315;48.620;9.828;2022-11-23T13:14:07;9.80;99.90
54409;DHT22;40315;48.620;9.828;2022-11-23T13:16:52;9.70;99.90
54409;DHT22;40315;48.620;9.828;2022-11-23T13:19:39;9.70;99.90
54409;DHT22;40315;48.620;9.828;2022-11-23T13:22:17;9.90;99.90
54409;DHT22;40315;48.620;9.828;2022-11-23T13:25:00;10.00;99.90
54409;DHT22;40315;48.620;9.828;2022-11-23T13:27:43;9.90;99.90
54409;DHT22;40315;48.620;9.828;2022-11-23T13:30:26;10.00;99.90
54409;DHT22;40315;48.620;9.828;2022-11-23T13:32:55;9.90;99.90
54409;DHT22;40315;48.620;9.828;2022-11-23T13:35:51;9.90;99.90
54409;DHT22;40315;48.620;9.828;2022-11-23T13:38:24;9.70;99.90
54409;DHT22;40315;48.620;9.828;2022-11-23T13:40:54;9.90;99.90
54409;DHT22;40315;48.620;9.828;2022-11-23T13:43:25;9.90;99.90
54409;DHT22;40315;48.620;9.828;2022-11-23T13:46:19;9.90;99.90
54409;DHT22;40315;48.620;9.828;2022-11-23T13:48:48;9.60;99.90
54409;DHT22;40315;48.620;9.828;2022-11-23T13:51:23;9.60;99.90
54409;DHT22;40315;48.620;9.828;2022-11-23T13:53:58;9.70;99.90
54409;DHT22;40315;48.620;9.828;2022-11-23T13:56:34;9.70;99.90
54409;DHT22;40315;48.620;9.828;2022-11-23T13:59:26;9.70;99.90
54409;DHT22;40315;48.620;9.828;2022-11-23T14:04:44;9.50;99.90
54409;DHT22;40315;48.620;9.828;2022-11-23T14:07:16;9.50;99.90
54409;DHT22;40315;48.620;9.828;2022-11-23T14:09:49;9.30;99.90
54409;DHT22;40315;48.620;9.828;2022-11-23T14:12:22;9.20;99.90
54409;DHT22;40315;48.620;9.828;2022-11-23T14:14:59;9.00;99.90
54409;DHT22;40315;48.620;9.828;2022-11-23T14:18:05;9.00;99.90
54409;DHT22;40315;48.620;9.828;2022-11-23T14:20:56;9.20;99.90
54409;DHT22;40315;48.620;9.828;2022-11-23T14:26:24;9.00;99.90
54409;DHT22;40315;48.620;9.828;2022-11-23T14:32:12;8.60;99.90
54409;DHT22;40315;48.620;9.828;2022-11-23T14:34:53;8.70;99.90
54409;DHT22;40315;48.620;9.828;2022-11-23T14:37:30;8.70;99.90
54409;DHT22;40315;48.620;9.828;2022-11-23T14:40:05;8.50;99.90
54409;DHT22;40315;48.620;9.828;2022-11-23T14:42:41;8.40;99.90
54409;DHT22;40315;48.620;9.828;2022-11-23T14:45:14;8.20;99.90
54409;DHT22;40315;48.620;9.828;2022-11-23T14:47:42;8.20;99.90
54409;DHT22;40315;48.620;9.828;2022-11-23T14:50:20;8.20;99.90
54409;DHT22;40315;48.620;9.828;2022-11-23T14:52:48;8.20;99.90
54409;DHT22;40315;48.620;9.828;2022-11-23T14:55:18;8.30;99.90
54409;DHT22;40315;48.620;9.828;2022-11-23T14:57:47;8.20;99.90
54409;DHT22;40315;48.620;9.828;2022-11-23T15:00:29;7.80;99.90
54409;DHT22;40315;48.620;9.828;2022-11-23T15:03:03;7.70;99.90
54409;DHT22;40315;48.620;9.828;2022-11-23T15:05:34;7.50;99.90
54409;DHT22;40315;48.620;9.828;2022-11-23T15:08:12;7.40;99.90
54409;DHT22;40315;48.620;9.828;2022-11-23T15:10:46;7.20;99.90
54409;DHT22;40315;48.620;9.828;2022-11-23T15:13:19;7.00;99.90
54409;DHT22;40315;48.620;9.828;2022-11-23T15:15:49;6.80;99.90
54409;DHT22;40315;48.620;9.828;2022-11-23T15:18:37;6.70;99.90
54409;DHT22;40315;48.620;9.828;2022-11-23T15:21:12;6.60;99.90
54409;DHT22;40315;48.620;9.828;2022-11-23T15:23:43;6.40;99.90
54409;DHT22;40315;48.620;9.828;2022-11-23T15:26:13;6.40;99.90
54409;DHT22;40315;48.620;9.828;2022-11-23T15:28:43;6.30;99.90
54409;DHT22;40315;48.620;9.828;2022-11-23T15:31:27;6.20;99.90
54409;DHT22;40315;48.620;9.828;2022-11-23T15:34:00;6.10;99.90
54409;DHT22;40315;48.620;9.828;2022-11-23T15:36:30;5.90;99.90
54409;DHT22;40315;48.620;9.828;2022-11-23T15:39:00;5.80;99.90
54409;DHT22;40315;48.620;9.828;2022-11-23T15:41:30;5.70;99.90
54409;DHT22;40315;48.620;9.828;2022-11-23T15:43:59;5.60;99.90
54409;DHT22;40315;48.620;9.828;2022-11-23T15:46:28;5.60;99.90
54409;DHT22;40315;48.620;9.828;2022-11-23T15:49:05;5.60;99.90
54409;DHT22;40315;48.620;9.828;2022-11-23T15:51:35;5.40;99.90
54409;DHT22;40315;48.620;9.828;2022-11-23T15:54:04;5.40;99.90
54409;DHT22;40315;48.620;9.828;2022-11-23T15:56:33;5.30;99.90
54409;DHT22;40315;48.620;9.828;2022-11-23T15:59:02;5.20;99.90
54409;DHT22;40315;48.620;9.828;2022-11-23T16:01:30;5.20;99.90
54409;DHT22;40315;48.620;9.828;2022-11-23T16:03:58;5.20;99.90
54409;DHT22;40315;48.620;9.828;2022-11-23T16:06:36;6.00;99.90
54409;DHT22;40315;48.620;9.828;2022-11-23T16:09:34;4.90;99.90
54409;DHT22;40315;48.620;9.828;2022-11-23T16:12:02;4.90;99.90
54409;DHT22;40315;48.620;9.828;2022-11-23T16:14:30;4.80;99.90
54409;DHT22;40315;48.620;9.828;2022-11-23T16:17:02;4.70;99.90
54409;DHT22;40315;48.620;9.828;2022-11-23T16:19:31;4.70;99.90
54409;DHT22;40315;48.620;9.828;2022-11-23T16:22:05;4.60;99.90
54409;DHT22;40315;48.620;9.828;2022-11-23T16:24:34;4.60;99.90
54409;DHT22;40315;48.620;9.828;2022-11-23T16:27:11;4.50;99.90
54409;DHT22;40315;48.620;9.828;2022-11-23T16:29:39;4.50;99.90
54409;DHT22;40315;48.620;9.828;2022-11-23T16:32:21;4.50;99.90
54409;DHT22;40315;48.620;9.828;2022-11-23T16:34:50;4.50;99.90
54409;DHT22;40315;48.620;9.828;2022-11-23T16:37:21;4.50;99.90
54409;DHT22;40315;48.620;9.828;2022-11-23T16:39:48;4.40;99.90
54409;DHT22;40315;48.620;9.828;2022-11-23T16:42:16;4.30;99.90
54409;DHT22;40315;48.620;9.828;2022-11-23T16:44:43;4.30;99.90
54409;DHT22;40315;48.620;9.828;2022-11-23T16:47:19;4.30;99.90
54409;DHT22;40315;48.620;9.828;2022-11-23T16:49:49;4.20;99.90
54409;DHT22;40315;48.620;9.828;2022-11-23T16:52:17;4.20;99.90
54409;DHT22;40315;48.620;9.828;2022-11-23T16:54:46;4.30;99.90
54409;DHT22;40315;48.620;9.828;2022-11-23T16:57:23;4.30;99.90